createdAt,value
2016-02-24T00:00:55.158Z,4.34
2016-02-24T00:01:55.129Z,4.4
2016-02-24T00:02:55.053Z,4.37
2016-02-24T00:03:54.978Z,4.38
2016-02-24T00:04:54.919Z,4.41
2016-02-24T00:05:54.890Z,4.34
2016-02-24T00:06:54.830Z,4.34
2016-02-24T00:07:54.770Z,4.26
2016-02-24T00:08:54.695Z,4.31
2016-02-24T00:09:54.635Z,4.35
2016-02-24T00:10:54.622Z,4.35
2016-02-24T00:11:54.593Z,4.3
2016-02-24T00:12:54.424Z,4.31
2016-02-24T00:13:54.395Z,4.41
2016-02-24T00:14:54.336Z,4.3
2016-02-24T00:15:54.276Z,4.23
2016-02-24T00:16:54.215Z,4.4
2016-02-24T00:17:54.156Z,4.28
2016-02-24T00:18:54.128Z,4.28
2016-02-24T00:19:54.036Z,4.26
2016-02-24T00:20:53.962Z,4.26
2016-02-24T00:21:54.026Z,4.23
2016-02-24T00:22:53.857Z,4.23
2016-02-24T00:23:53.844Z,4.41
2016-02-24T00:24:53.785Z,4.38
2016-02-24T00:25:53.678Z,4.38
2016-02-24T00:26:53.650Z,4.41
2016-02-24T00:27:53.543Z,4.41
2016-02-24T00:28:53.514Z,4.41
2016-02-24T00:29:53.470Z,4.34
2016-02-24T00:30:53.442Z,4.32
2016-02-24T00:31:53.381Z,4.41
2016-02-24T00:32:53.291Z,4.37
2016-02-24T00:33:53.247Z,4.41
2016-02-24T00:34:53.186Z,4.42
2016-02-24T00:35:53.115Z,4.35
2016-02-24T00:36:53.056Z,4.38
2016-02-24T00:37:52.980Z,4.26
2016-02-24T00:38:52.952Z,4.38
2016-02-24T00:39:52.938Z,4.42
2016-02-24T00:40:52.848Z,4.3
2016-02-24T00:41:52.757Z,4.34
2016-02-24T00:42:52.743Z,4.32
2016-02-24T00:43:52.653Z,4.41
2016-02-24T00:44:52.562Z,4.35
2016-02-24T00:45:52.518Z,4.35
2016-02-24T00:46:52.537Z,4.24
2016-02-24T00:47:52.445Z,4.32
2016-02-24T00:48:52.370Z,4.23
2016-02-24T00:49:52.279Z,4.23
2016-02-24T00:50:52.234Z,4.24
2016-02-24T00:51:52.175Z,4.32
2016-02-24T00:52:52.098Z,4.23
2016-02-24T00:53:52.087Z,4.24
2016-02-24T00:54:52.073Z,4.23
2016-02-24T00:55:52.014Z,4.2
2016-02-24T00:56:51.953Z,4.24
2016-02-24T00:57:51.784Z,4.24
2016-02-24T00:58:51.786Z,4.26
2016-02-24T00:59:51.556Z,4.19
2016-02-24T01:00:51.683Z,4.22
2016-02-24T01:01:51.638Z,4.16
2016-02-24T01:02:51.517Z,4.14
2016-02-24T01:03:51.472Z,4.13
2016-02-24T01:04:51.538Z,4.12
2016-02-24T01:05:51.400Z,4.2
2016-02-24T01:06:51.314Z,4.13
2016-02-24T01:07:51.269Z,4.19
2016-02-24T01:08:51.179Z,4.08
2016-02-24T01:09:51.102Z,4.19
2016-02-24T01:10:51.059Z,4.1
2016-02-24T01:11:51.015Z,4.16
2016-02-24T01:12:50.939Z,4.22
2016-02-24T01:13:50.863Z,4.19
2016-02-24T01:14:50.850Z,4.32
2016-02-24T01:15:50.791Z,4.2
2016-02-24T01:16:50.731Z,4.22
2016-02-24T01:17:50.639Z,4.31
2016-02-24T01:18:50.595Z,4.32
2016-02-24T01:19:50.536Z,4.41
2016-02-24T01:20:50.554Z,4.34
2016-02-24T01:21:50.431Z,4.37
2016-02-24T01:22:50.372Z,4.34
2016-02-24T01:23:50.265Z,4.37
2016-02-24T01:24:50.237Z,4.37
2016-02-24T01:25:50.224Z,4.35
2016-02-24T01:26:50.102Z,4.38
2016-02-24T01:27:50.025Z,4.38
2016-02-24T01:28:49.998Z,4.32
2016-02-24T01:29:49.938Z,4.4
2016-02-24T01:30:49.894Z,4.38
2016-02-24T01:31:49.833Z,4.4
2016-02-24T01:32:49.774Z,4.44
2016-02-24T01:33:49.714Z,4.45
2016-02-24T01:34:49.749Z,4.38
2016-02-24T01:35:49.610Z,4.48
2016-02-24T01:36:49.566Z,4.44
2016-02-24T01:37:49.490Z,4.42
2016-02-24T01:38:49.416Z,4.55
2016-02-24T01:39:49.371Z,4.48
2016-02-24T01:40:49.311Z,4.5
2016-02-24T01:41:49.282Z,4.53
2016-02-24T01:42:49.207Z,4.6
2016-02-24T01:43:49.131Z,4.58
2016-02-24T01:44:49.104Z,4.58
2016-02-24T01:45:49.028Z,4.59
2016-02-24T01:46:48.967Z,4.62
2016-02-24T01:47:48.908Z,4.6
2016-02-24T01:48:48.848Z,4.67
2016-02-24T01:49:48.804Z,4.59
2016-02-24T01:50:48.712Z,4.63
2016-02-24T01:51:48.684Z,4.58
2016-02-24T01:52:48.640Z,4.82
2016-02-24T01:53:48.581Z,4.62
2016-02-24T01:54:48.553Z,4.7
2016-02-24T01:55:48.445Z,4.8
2016-02-24T01:56:48.432Z,4.74
2016-02-24T01:57:48.342Z,4.75
2016-02-24T01:58:48.281Z,4.77
2016-02-24T01:59:48.237Z,4.9
2016-02-24T02:00:48.178Z,4.77
2016-02-24T02:01:48.102Z,4.77
2016-02-24T02:02:48.058Z,4.75
2016-02-24T02:03:48.013Z,4.74
2016-02-24T02:04:47.938Z,4.8
2016-02-24T02:05:47.893Z,4.92
2016-02-24T02:06:47.818Z,4.82
2016-02-24T02:07:47.774Z,4.82
2016-02-24T02:08:47.730Z,4.74
2016-02-24T02:09:47.639Z,4.8
2016-02-24T02:10:47.595Z,4.75
2016-02-24T02:11:47.551Z,4.77
2016-02-24T02:12:47.476Z,4.8
2016-02-24T02:13:47.447Z,4.9
2016-02-24T02:14:47.340Z,4.9
2016-02-24T02:15:47.311Z,4.93
2016-02-24T02:16:47.252Z,4.89
2016-02-24T02:17:47.176Z,4.96
2016-02-24T02:18:47.101Z,4.92
2016-02-24T02:19:47.057Z,4.9
2016-02-24T02:20:47.012Z,4.92
2016-02-24T02:21:46.968Z,4.87
2016-02-24T02:22:46.893Z,4.9
2016-02-24T02:23:46.692Z,4.87
2016-02-24T02:24:46.773Z,4.96
2016-02-24T02:25:46.713Z,4.99
2016-02-24T02:26:46.670Z,4.96
2016-02-24T02:27:46.594Z,4.87
2016-02-24T02:28:46.550Z,4.84
2016-02-24T02:29:46.522Z,4.97
2016-02-24T02:30:46.446Z,4.94
2016-02-24T02:31:46.402Z,4.92
2016-02-24T02:32:46.326Z,5
2016-02-24T02:33:46.283Z,4.89
2016-02-24T02:34:46.206Z,4.96
2016-02-24T02:35:46.147Z,4.94
2016-02-24T02:36:46.071Z,4.9
2016-02-24T02:37:46.011Z,4.89
2016-02-24T02:38:45.998Z,4.96
2016-02-24T02:39:45.907Z,4.89
2016-02-24T02:40:45.863Z,4.97
2016-02-24T02:41:45.788Z,4.92
2016-02-24T02:42:45.759Z,4.97
2016-02-24T02:43:45.715Z,4.87
2016-02-24T02:44:45.671Z,4.96
2016-02-24T02:45:45.564Z,4.97
2016-02-24T02:46:45.488Z,5.05
2016-02-24T02:47:45.460Z,4.94
2016-02-24T02:48:45.385Z,4.97
2016-02-24T02:49:45.309Z,4.93
2016-02-24T02:50:45.281Z,4.96
2016-02-24T02:51:45.267Z,4.99
2016-02-24T02:52:45.193Z,4.97
2016-02-24T02:53:45.070Z,5.07
2016-02-24T02:54:45.056Z,4.99
2016-02-24T02:55:45.013Z,5.04
2016-02-24T02:56:44.937Z,5.04
2016-02-24T02:57:44.862Z,5.04
2016-02-24T02:58:44.850Z,4.94
2016-02-24T02:59:44.789Z,5.1
2016-02-24T03:00:44.682Z,5
2016-02-24T03:01:44.669Z,5.07
2016-02-24T03:02:44.641Z,4.96
2016-02-24T03:03:44.566Z,5.02
2016-02-24T03:04:44.458Z,5.08
2016-02-24T03:05:44.430Z,5.05
2016-02-24T03:06:44.386Z,5.04
2016-02-24T03:07:44.326Z,5.04
2016-02-24T03:08:44.236Z,5.07
2016-02-24T03:09:44.191Z,5.02
2016-02-24T03:10:44.116Z,4.99
2016-02-24T03:11:44.103Z,5.05
2016-02-24T03:12:44.012Z,4.99
2016-02-24T03:13:43.968Z,5
2016-02-24T03:14:43.877Z,5.05
2016-02-24T03:15:43.832Z,5.04
2016-02-24T03:16:43.789Z,5.08
2016-02-24T03:17:43.730Z,4.97
2016-02-24T03:18:43.670Z,5.02
2016-02-24T03:19:43.610Z,4.97
2016-02-24T03:20:43.565Z,4.96
2016-02-24T03:21:43.522Z,5.08
2016-02-24T03:22:43.415Z,4.99
2016-02-24T03:23:43.386Z,5.02
2016-02-24T03:24:43.326Z,5.04
2016-02-24T03:25:43.282Z,4.99
2016-02-24T03:26:43.190Z,5.02
2016-02-24T03:27:43.147Z,4.93
2016-02-24T03:28:43.102Z,4.93
2016-02-24T03:29:43.043Z,5.04
2016-02-24T03:30:42.982Z,5.04
2016-02-24T03:31:42.907Z,5.02
2016-02-24T03:32:42.848Z,4.97
2016-02-24T03:33:42.834Z,4.96
2016-02-24T03:34:42.743Z,4.97
2016-02-24T03:35:42.762Z,4.96
2016-02-24T03:36:42.639Z,4.96
2016-02-24T03:37:42.580Z,5
2016-02-24T03:38:42.504Z,4.89
2016-02-24T03:39:42.476Z,4.89
2016-02-24T03:40:42.398Z,4.89
2016-02-24T03:41:42.358Z,4.89
2016-02-24T03:42:42.270Z,4.92
2016-02-24T03:43:42.213Z,4.84
2016-02-24T03:44:42.157Z,4.82
2016-02-24T03:45:42.070Z,4.74
2016-02-24T03:46:41.992Z,4.75
2016-02-24T03:47:41.958Z,4.77
2016-02-24T03:48:41.910Z,4.74
2016-02-24T03:49:41.799Z,4.78
2016-02-24T03:50:41.782Z,4.73
2016-02-24T03:51:41.689Z,4.63
2016-02-24T03:52:41.644Z,4.7
2016-02-24T03:53:41.581Z,4.74
2016-02-24T03:54:41.537Z,4.73
2016-02-24T03:55:41.459Z,4.71
2016-02-24T03:56:41.399Z,4.77
2016-02-24T03:57:41.324Z,4.66
2016-02-24T03:58:41.294Z,4.7
2016-02-24T03:59:41.217Z,4.73
2016-02-24T04:00:41.219Z,4.66
2016-02-24T04:01:41.113Z,4.62
2016-02-24T04:02:41.084Z,4.71
2016-02-24T04:03:40.993Z,4.7
2016-02-24T04:04:40.917Z,4.67
2016-02-24T04:05:40.879Z,4.62
2016-02-24T04:06:40.834Z,4.63
2016-02-24T04:07:40.743Z,4.63
2016-02-24T04:08:40.699Z,4.63
2016-02-24T04:09:40.639Z,4.59
2016-02-24T04:10:40.861Z,4.67
2016-02-24T04:11:40.520Z,4.62
2016-02-24T04:12:40.428Z,4.62
2016-02-24T04:13:40.416Z,4.63
2016-02-24T04:14:40.325Z,4.62
2016-02-24T04:15:40.280Z,4.59
2016-02-24T04:16:40.236Z,4.6
2016-02-24T04:17:40.192Z,4.56
2016-02-24T04:18:40.116Z,4.6
2016-02-24T04:19:40.041Z,4.66
2016-02-24T04:20:40.027Z,4.63
2016-02-24T04:21:39.953Z,4.62
2016-02-24T04:22:39.877Z,4.59
2016-02-24T04:23:39.849Z,4.68
2016-02-24T04:24:39.805Z,4.75
2016-02-24T04:25:39.744Z,4.71
2016-02-24T04:26:39.654Z,4.71
2016-02-24T04:27:39.688Z,4.63
2016-02-24T04:28:39.550Z,4.82
2016-02-24T04:29:39.474Z,4.71
2016-02-24T04:30:39.429Z,4.74
2016-02-24T04:31:39.386Z,4.7
2016-02-24T04:32:39.279Z,4.78
2016-02-24T04:33:39.235Z,4.77
2016-02-24T04:34:39.191Z,4.74
2016-02-24T04:35:39.131Z,4.78
2016-02-24T04:36:39.070Z,4.78
2016-02-24T04:37:39.027Z,4.78
2016-02-24T04:38:38.936Z,4.73
2016-02-24T04:39:38.907Z,4.73
2016-02-24T04:40:38.847Z,4.7
2016-02-24T04:41:38.772Z,4.77
2016-02-24T04:42:38.712Z,4.73
2016-02-24T04:43:38.668Z,4.63
2016-02-24T04:44:38.625Z,4.74
2016-02-24T04:45:38.580Z,4.68
2016-02-24T04:46:38.504Z,4.63
2016-02-24T04:47:38.429Z,4.78
2016-02-24T04:48:38.385Z,4.73
2016-02-24T04:49:38.309Z,4.86
2016-02-24T04:50:38.265Z,4.75
2016-02-24T04:51:38.205Z,4.8
2016-02-24T04:52:38.161Z,4.82
2016-02-24T04:53:38.101Z,4.84
2016-02-24T04:54:38.046Z,4.78
2016-02-24T04:55:38.017Z,4.8
2016-02-24T04:56:37.972Z,4.84
2016-02-24T04:57:37.913Z,4.86
2016-02-24T04:58:37.791Z,4.87
2016-02-24T04:59:37.714Z,4.89
2016-02-24T05:00:37.717Z,4.87
2016-02-24T05:01:37.642Z,4.87
2016-02-24T05:02:37.598Z,4.78
2016-02-24T05:03:37.491Z,4.78
2016-02-24T05:04:37.432Z,4.74
2016-02-24T05:05:37.372Z,4.89
2016-02-24T05:06:37.343Z,4.8
2016-02-24T05:07:37.361Z,4.75
2016-02-24T05:08:37.239Z,4.86
2016-02-24T05:09:37.148Z,4.8
2016-02-24T05:10:37.151Z,4.8
2016-02-24T05:11:37.029Z,4.82
2016-02-24T05:12:37.032Z,4.92
2016-02-24T05:13:36.956Z,4.78
2016-02-24T05:14:36.990Z,4.82
2016-02-24T05:15:36.805Z,4.93
2016-02-24T05:16:36.840Z,4.89
2016-02-24T05:17:36.763Z,4.87
2016-02-24T05:18:36.657Z,4.92
2016-02-24T05:19:36.581Z,4.92
2016-02-24T05:20:36.584Z,4.77
2016-02-24T05:21:36.477Z,4.96
2016-02-24T05:22:36.418Z,4.86
2016-02-24T05:23:36.404Z,4.77
2016-02-24T05:24:36.345Z,4.77
2016-02-24T05:25:36.239Z,4.89
2016-02-24T05:26:36.209Z,4.89
2016-02-24T05:27:36.134Z,4.89
2016-02-24T05:28:36.075Z,4.86
2016-02-24T05:29:36.030Z,4.9
2016-02-24T05:30:36.048Z,4.77
2016-02-24T05:31:35.941Z,4.9
2016-02-24T05:32:35.835Z,4.8
2016-02-24T05:33:35.744Z,4.87
2016-02-24T05:34:35.715Z,4.78
2016-02-24T05:35:35.703Z,4.77
2016-02-24T05:36:35.611Z,4.8
2016-02-24T05:37:35.613Z,4.77
2016-02-24T05:38:35.524Z,4.87
2016-02-24T05:39:35.432Z,4.92
2016-02-24T05:40:35.419Z,4.82
2016-02-24T05:41:35.624Z,4.86
2016-02-24T05:42:35.252Z,4.9
2016-02-24T05:43:35.302Z,4.92
2016-02-24T05:44:35.132Z,4.94
2016-02-24T05:45:35.152Z,4.89
2016-02-24T05:46:35.076Z,4.87
2016-02-24T05:47:35.000Z,4.93
2016-02-24T05:48:34.956Z,4.89
2016-02-24T05:49:34.881Z,4.96
2016-02-24T05:50:34.821Z,4.9
2016-02-24T05:51:34.776Z,4.86
2016-02-24T05:52:34.717Z,4.99
2016-02-24T05:53:34.626Z,4.97
2016-02-24T05:54:34.567Z,4.96
2016-02-24T05:55:34.507Z,4.93
2016-02-24T05:56:34.462Z,5
2016-02-24T05:57:34.387Z,4.93
2016-02-24T05:58:34.342Z,4.87
2016-02-24T05:59:34.251Z,4.92
2016-02-24T06:00:34.253Z,4.96
2016-02-24T06:01:34.178Z,5
2016-02-24T06:02:34.102Z,4.87
2016-02-24T06:03:34.075Z,4.99
2016-02-24T06:04:33.952Z,4.9
2016-02-24T06:05:33.877Z,4.87
2016-02-24T06:06:33.864Z,4.89
2016-02-24T06:07:33.788Z,4.89
2016-02-24T06:08:33.854Z,4.97
2016-02-24T06:09:33.717Z,4.84
2016-02-24T06:10:33.625Z,4.92
2016-02-24T06:11:33.597Z,4.86
2016-02-24T06:12:33.506Z,4.9
2016-02-24T06:13:33.462Z,4.94
2016-02-24T06:14:33.558Z,4.9
2016-02-24T06:15:33.342Z,4.87
2016-02-24T06:16:33.314Z,4.89
2016-02-24T06:17:33.238Z,4.93
2016-02-24T06:18:33.210Z,4.96
2016-02-24T06:19:33.244Z,4.94
2016-02-24T06:20:33.075Z,4.9
2016-02-24T06:21:33.014Z,4.9
2016-02-24T06:22:33.002Z,4.93
2016-02-24T06:23:32.911Z,4.92
2016-02-24T06:24:32.866Z,4.87
2016-02-24T06:25:32.775Z,4.9
2016-02-24T06:26:32.762Z,4.93
2016-02-24T06:27:32.687Z,4.86
2016-02-24T06:28:32.595Z,4.87
2016-02-24T06:29:32.551Z,4.89
2016-02-24T06:30:32.476Z,4.94
2016-02-24T06:31:32.495Z,4.86
2016-02-24T06:32:32.404Z,4.96
2016-02-24T06:33:32.328Z,4.92
2016-02-24T06:34:32.268Z,4.77
2016-02-24T06:35:32.208Z,4.87
2016-02-24T06:36:32.180Z,4.87
2016-02-24T06:37:32.089Z,4.89
2016-02-24T06:38:32.045Z,4.89
2016-02-24T06:39:32.000Z,4.94
2016-02-24T06:40:31.894Z,4.89
2016-02-24T06:41:31.881Z,4.94
2016-02-24T06:42:31.805Z,4.9
2016-02-24T06:43:31.762Z,4.97
2016-02-24T06:44:31.705Z,4.93
2016-02-24T06:45:31.540Z,4.87
2016-02-24T06:46:31.606Z,4.94
2016-02-24T06:47:31.530Z,4.97
2016-02-24T06:48:31.501Z,4.93
2016-02-24T06:49:31.394Z,4.92
2016-02-24T06:50:31.413Z,4.89
2016-02-24T06:51:31.369Z,4.87
2016-02-24T06:52:31.230Z,4.87
2016-02-24T06:53:31.202Z,4.78
2016-02-24T06:54:31.111Z,4.92
2016-02-24T06:55:31.083Z,4.9
2016-02-24T06:56:30.991Z,4.92
2016-02-24T06:57:30.931Z,4.96
2016-02-24T06:58:30.857Z,4.89
2016-02-24T06:59:31.031Z,4.89
2016-02-24T07:00:30.752Z,4.99
2016-02-24T07:01:30.708Z,4.96
2016-02-24T07:02:30.727Z,4.92
2016-02-24T07:03:30.557Z,4.97
2016-02-24T07:04:30.622Z,5
2016-02-24T07:05:30.219Z,5
2016-02-24T07:06:30.518Z,5.02
2016-02-24T07:07:30.364Z,4.93
2016-02-24T07:08:30.321Z,5.07
2016-02-24T07:09:30.250Z,5.04
2016-02-24T07:10:30.189Z,5.07
2016-02-24T07:11:30.209Z,5.07
2016-02-24T07:12:30.039Z,5.02
2016-02-24T07:13:30.152Z,5.02
2016-02-24T07:14:29.935Z,5.11
2016-02-24T07:15:29.953Z,5.05
2016-02-24T07:16:29.847Z,4.96
2016-02-24T07:17:29.974Z,5
2016-02-24T07:18:29.791Z,5.04
2016-02-24T07:19:29.699Z,5.08
2016-02-24T07:20:29.654Z,5.05
2016-02-24T07:21:29.579Z,5.1
2016-02-24T07:22:29.613Z,5.05
2016-02-24T07:23:29.444Z,5.14
2016-02-24T07:24:29.384Z,5.15
2016-02-24T07:25:29.309Z,5.11
2016-02-24T07:26:29.280Z,5.02
2016-02-24T07:27:29.220Z,5.05
2016-02-24T07:28:29.130Z,5.11
2016-02-24T07:29:29.210Z,5.11
2016-02-24T07:30:29.182Z,5.1
2016-02-24T07:31:28.981Z,5.07
2016-02-24T07:32:28.921Z,5.07
2016-02-24T07:33:28.893Z,5
2016-02-24T07:34:28.786Z,5.05
2016-02-24T07:35:28.742Z,4.99
2016-02-24T07:36:28.681Z,5.04
2016-02-24T07:37:28.606Z,5.05
2016-02-24T07:38:28.625Z,4.97
2016-02-24T07:39:28.486Z,5
2016-02-24T07:40:28.442Z,4.99
2016-02-24T07:41:28.398Z,5.02
2016-02-24T07:42:28.354Z,4.9
2016-02-24T07:43:28.278Z,4.9
2016-02-24T07:44:28.219Z,4.93
2016-02-24T07:45:28.175Z,4.92
2016-02-24T07:46:28.083Z,4.9
2016-02-24T07:47:28.102Z,4.86
2016-02-24T07:48:28.027Z,4.92
2016-02-24T07:49:27.983Z,4.92
2016-02-24T07:50:27.907Z,4.93
2016-02-24T07:51:27.800Z,4.82
2016-02-24T07:52:27.757Z,4.9
2016-02-24T07:53:27.728Z,4.94
2016-02-24T07:54:27.652Z,4.93
2016-02-24T07:55:27.593Z,4.93
2016-02-24T07:56:27.533Z,4.96
2016-02-24T07:57:27.520Z,5.04
2016-02-24T07:58:27.413Z,4.93
2016-02-24T07:59:27.479Z,4.96
2016-02-24T08:00:27.356Z,4.99
2016-02-24T08:01:27.249Z,4.99
2016-02-24T08:02:27.251Z,4.87
2016-02-24T08:03:27.240Z,5
2016-02-24T08:04:27.117Z,4.89
2016-02-24T08:05:27.181Z,4.87
2016-02-24T08:06:27.045Z,4.94
2016-02-24T08:07:26.922Z,4.9
2016-02-24T08:08:26.815Z,4.87
2016-02-24T08:09:26.770Z,4.96
2016-02-24T08:10:26.726Z,4.93
2016-02-24T08:11:26.667Z,5.02
2016-02-24T08:12:26.623Z,5.02
2016-02-24T08:13:26.547Z,4.97
2016-02-24T08:14:26.472Z,5.08
2016-02-24T08:15:26.458Z,5.11
2016-02-24T08:16:26.383Z,5.12
2016-02-24T08:17:26.354Z,5.23
2016-02-24T08:18:26.247Z,5.18
2016-02-24T08:19:26.235Z,5.18
2016-02-24T08:20:26.160Z,5.2
2016-02-24T08:21:26.130Z,5.2
2016-02-24T08:22:26.133Z,5.2
2016-02-24T08:23:25.965Z,5.26
2016-02-24T08:24:25.921Z,5.2
2016-02-24T08:25:25.860Z,5.21
2016-02-24T08:26:25.894Z,5.17
2016-02-24T08:27:25.819Z,5.2
2016-02-24T08:28:25.696Z,5.23
2016-02-24T08:29:25.638Z,5.25
2016-02-24T08:30:25.546Z,5.3
2016-02-24T08:31:25.517Z,5.26
2016-02-24T08:32:25.473Z,5.26
2016-02-24T08:33:25.429Z,5.32
2016-02-24T08:34:25.354Z,5.33
2016-02-24T08:35:25.309Z,5.3
2016-02-24T08:36:25.312Z,5.3
2016-02-24T08:37:25.190Z,5.41
2016-02-24T08:38:25.176Z,5.35
2016-02-24T08:39:25.039Z,5.39
2016-02-24T08:40:25.120Z,5.39
2016-02-24T08:41:24.934Z,5.38
2016-02-24T08:42:24.953Z,5.36
2016-02-24T08:43:24.847Z,5.43
2016-02-24T08:44:24.817Z,5.35
2016-02-24T08:45:24.727Z,5.35
2016-02-24T08:46:24.652Z,5.44
2016-02-24T08:47:24.608Z,5.44
2016-02-24T08:48:24.516Z,5.41
2016-02-24T08:49:24.503Z,5.43
2016-02-24T08:50:24.506Z,5.43
2016-02-24T08:51:24.399Z,5.38
2016-02-24T08:52:24.355Z,5.39
2016-02-24T08:53:24.342Z,5.39
2016-02-24T08:54:24.219Z,5.33
2016-02-24T08:55:24.144Z,5.36
2016-02-24T08:56:24.100Z,5.39
2016-02-24T08:57:23.994Z,5.39
2016-02-24T08:58:23.949Z,5.38
2016-02-24T08:59:23.905Z,5.41
2016-02-24T09:00:23.971Z,5.41
2016-02-24T09:01:23.848Z,5.36
2016-02-24T09:02:23.820Z,5.32
2016-02-24T09:03:23.698Z,5.38
2016-02-24T09:04:23.637Z,5.29
2016-02-24T09:05:23.656Z,5.39
2016-02-24T09:06:23.549Z,5.41
2016-02-24T09:07:23.473Z,5.44
2016-02-24T09:08:23.382Z,5.43
2016-02-24T09:09:23.432Z,5.54
2016-02-24T09:10:23.545Z,5.59
2016-02-24T09:11:23.219Z,5.54
2016-02-24T09:12:23.237Z,5.62
2016-02-24T09:13:23.146Z,5.46
2016-02-24T09:14:23.180Z,5.53
2016-02-24T09:15:23.025Z,5.54
2016-02-24T09:16:22.951Z,5.64
2016-02-24T09:17:22.813Z,5.64
2016-02-24T09:18:22.847Z,5.75
2016-02-24T09:19:22.866Z,5.76
2016-02-24T09:20:22.805Z,5.72
2016-02-24T09:21:22.699Z,5.71
2016-02-24T09:22:22.592Z,5.82
2016-02-24T09:23:22.594Z,6.08
2016-02-24T09:24:22.566Z,6.28
2016-02-24T09:25:22.506Z,6.3
2016-02-24T09:26:22.385Z,6.44
2016-02-24T09:27:22.371Z,6.64
2016-02-24T09:28:22.265Z,6.78
2016-02-24T09:29:22.518Z,6.92
2016-02-24T09:30:22.238Z,6.96
2016-02-24T09:31:22.085Z,7.03
2016-02-24T09:32:22.166Z,7.29
2016-02-24T09:33:21.996Z,7.25
2016-02-24T09:34:21.936Z,7.43
2016-02-24T09:35:21.876Z,7.45
2016-02-24T09:36:21.848Z,7.42
2016-02-24T09:37:21.789Z,7.47
2016-02-24T09:38:21.745Z,7.91
2016-02-24T09:39:21.731Z,8.1
2016-02-24T09:40:21.640Z,8.16
2016-02-24T09:41:21.595Z,8.52
2016-02-24T09:42:21.709Z,9.21
2016-02-24T09:43:21.523Z,9.73
2016-02-24T09:44:21.400Z,10.09
2016-02-24T09:45:21.467Z,10.19
2016-02-24T09:46:21.313Z,10.44
2016-02-24T09:47:21.191Z,10.26
2016-02-24T09:48:21.209Z,10.38
2016-02-24T09:49:21.289Z,10.53
2016-02-24T09:50:21.089Z,10.84
2016-02-24T09:51:20.998Z,11.17
2016-02-24T09:52:21.000Z,11.45
2016-02-24T09:53:20.988Z,11.91
2016-02-24T09:54:20.928Z,12.28
2016-02-24T09:55:20.822Z,12.6
2016-02-24T09:56:20.730Z,12.75
2016-02-24T09:57:20.702Z,12.65
2016-02-24T09:58:20.674Z,13.12
2016-02-24T09:59:20.535Z,13.19
2016-02-24T10:00:20.507Z,13.22
2016-02-24T10:01:20.462Z,13.2
2016-02-24T10:02:20.512Z,13.33
2016-02-24T10:03:20.342Z,13.39
2016-02-24T10:04:20.299Z,13.57
2016-02-24T10:05:20.270Z,13.78
2016-02-24T10:06:20.288Z,14.04
2016-02-24T10:07:20.198Z,13.87
2016-02-24T10:08:20.059Z,13.83
2016-02-24T10:09:20.062Z,14.17
2016-02-24T10:10:19.971Z,14.15
2016-02-24T10:11:19.942Z,14.25
2016-02-24T10:12:19.914Z,13.89
2016-02-24T10:13:19.839Z,13.77
2016-02-24T10:14:19.889Z,13.22
2016-02-24T10:15:19.719Z,13.22
2016-02-24T10:16:19.722Z,13.19
2016-02-24T10:17:19.756Z,12.87
2016-02-24T10:18:19.570Z,12.75
2016-02-24T10:19:19.542Z,12.83
2016-02-24T10:20:19.467Z,13.12
2016-02-24T10:21:19.391Z,13.44
2016-02-24T10:22:19.410Z,13.3
2016-02-24T10:23:19.381Z,12.94
2016-02-24T10:24:19.352Z,12.55
2016-02-24T10:25:19.214Z,12.36
2016-02-24T10:26:19.124Z,12.46
2016-02-24T10:27:19.079Z,12.54
2016-02-24T10:28:19.035Z,12.22
2016-02-24T10:29:18.960Z,12.1
2016-02-24T10:30:18.962Z,11.97
2016-02-24T10:31:18.902Z,11.66
2016-02-24T10:32:18.858Z,11.41
2016-02-24T10:33:18.860Z,11.11
2016-02-24T10:34:18.630Z,10.96
2016-02-24T10:35:18.710Z,10.87
2016-02-24T10:36:18.635Z,10.82
2016-02-24T10:37:18.700Z,10.57
2016-02-24T10:38:18.687Z,10.33
2016-02-24T10:39:18.456Z,10.33
2016-02-24T10:40:18.254Z,9.89
2016-02-24T10:41:18.382Z,9.92
2016-02-24T10:42:18.276Z,9.44
2016-02-24T10:43:18.278Z,9.41
2016-02-24T10:44:18.220Z,9.46
2016-02-24T10:45:18.112Z,9.5
2016-02-24T10:46:18.052Z,9.34
2016-02-24T10:47:18.039Z,9.23
2016-02-24T10:48:18.073Z,9.11
2016-02-24T10:49:17.935Z,9.46
2016-02-24T10:50:17.891Z,9.65
2016-02-24T10:51:17.800Z,9.69
2016-02-24T10:52:17.772Z,9.41
2016-02-24T10:53:17.665Z,9.41
2016-02-24T10:54:17.621Z,9.48
2016-02-24T10:55:17.576Z,9.43
2016-02-24T10:56:17.720Z,9.97
2016-02-24T10:57:17.457Z,10.38
2016-02-24T10:58:17.459Z,10.86
2016-02-24T10:59:17.400Z,11.45
2016-02-24T11:00:17.527Z,12.17
2016-02-24T11:01:17.405Z,12.67
2016-02-24T11:02:17.236Z,13.18
2016-02-24T11:03:17.207Z,13.44
2016-02-24T11:04:17.085Z,13.86
2016-02-24T11:05:17.041Z,14.4
2016-02-24T11:06:17.043Z,14.78
2016-02-24T11:07:16.968Z,15.06
2016-02-24T11:08:16.861Z,14.94
2016-02-24T11:09:16.848Z,15
2016-02-24T11:10:16.882Z,15.22
2016-02-24T11:11:16.713Z,15.44
2016-02-24T11:12:16.685Z,15.82
2016-02-24T11:13:16.626Z,15.62
2016-02-24T11:14:16.612Z,15.62
2016-02-24T11:15:16.506Z,15.73
2016-02-24T11:16:16.477Z,15.58
2016-02-24T11:17:16.479Z,15.25
2016-02-24T11:18:16.341Z,14.92
2016-02-24T11:19:16.282Z,14.63
2016-02-24T11:20:16.300Z,14.44
2016-02-24T11:21:16.286Z,14.07
2016-02-24T11:22:16.134Z,13.72
2016-02-24T11:23:16.152Z,13.47
2016-02-24T11:24:16.045Z,13.23
2016-02-24T11:25:15.954Z,13.05
2016-02-24T11:26:15.941Z,12.79
2016-02-24T11:27:15.881Z,12.49
2016-02-24T11:28:15.900Z,12.32
2016-02-24T11:29:15.793Z,12.24
2016-02-24T11:30:15.701Z,12.12
2016-02-24T11:31:15.642Z,11.94
2016-02-24T11:32:15.644Z,11.73
2016-02-24T11:33:15.693Z,11.51
2016-02-24T11:34:15.525Z,11.3
2016-02-24T11:35:15.434Z,11.19
2016-02-24T11:36:15.405Z,11
2016-02-24T11:37:15.440Z,10.9
2016-02-24T11:38:15.348Z,10.94
2016-02-24T11:39:15.226Z,10.87
2016-02-24T11:40:15.198Z,10.94
2016-02-24T11:41:15.137Z,10.86
2016-02-24T11:42:15.046Z,11.04
2016-02-24T11:43:14.237Z,11.36
2016-02-24T11:44:14.989Z,11.45
2016-02-24T11:45:14.945Z,11.57
2016-02-24T11:46:14.854Z,11.91
2016-02-24T11:47:14.934Z,12.49
2016-02-24T11:48:14.767Z,12.6
2016-02-24T11:49:14.690Z,12.7
2016-02-24T11:50:14.646Z,12.61
2016-02-24T11:51:14.586Z,12.68
2016-02-24T11:52:14.495Z,12.7
2016-02-24T11:53:14.514Z,12.68
2016-02-24T11:54:14.438Z,12.57
2016-02-24T11:55:14.378Z,12.61
2016-02-24T11:56:14.380Z,12.57
2016-02-24T11:57:14.337Z,12.4
2016-02-24T11:58:14.246Z,12.2
2016-02-24T11:59:14.279Z,12.21
2016-02-24T12:00:14.094Z,12.09
2016-02-24T12:01:14.035Z,11.88
2016-02-24T12:02:14.022Z,11.54
2016-02-24T12:03:13.947Z,11.45
2016-02-24T12:04:13.902Z,11.08
2016-02-24T12:05:13.892Z,10.81
2016-02-24T12:06:13.769Z,10.79
2016-02-24T12:07:13.740Z,10.79
2016-02-24T12:08:13.681Z,10.44
2016-02-24T12:09:13.700Z,10.41
2016-02-24T12:10:13.608Z,10.42
2016-02-24T12:11:13.533Z,10.42
2016-02-24T12:12:13.489Z,10.28
2016-02-24T12:13:13.475Z,10.09
2016-02-24T12:14:13.431Z,10.01
2016-02-24T12:15:13.341Z,9.87
2016-02-24T12:16:13.389Z,9.69
2016-02-24T12:17:13.236Z,9.68
2016-02-24T12:18:13.161Z,9.55
2016-02-24T12:19:13.102Z,9.59
2016-02-24T12:20:13.150Z,9.72
2016-02-24T12:21:12.982Z,9.69
2016-02-24T12:22:12.891Z,9.87
2016-02-24T12:23:12.893Z,9.92
2016-02-24T12:24:12.896Z,9.99
2016-02-24T12:25:12.774Z,10.07
2016-02-24T12:26:12.760Z,10.09
2016-02-24T12:27:12.716Z,10.01
2016-02-24T12:28:12.704Z,10.01
2016-02-24T12:29:12.612Z,10.04
2016-02-24T12:30:12.646Z,9.94
2016-02-24T12:31:12.446Z,10.02
2016-02-24T12:32:12.432Z,10.34
2016-02-24T12:33:12.451Z,10.51
2016-02-24T12:34:12.344Z,10.48
2016-02-24T12:35:12.206Z,10.74
2016-02-24T12:36:12.178Z,10.63
2016-02-24T12:37:12.133Z,10.13
2016-02-24T12:38:12.073Z,10.33
2016-02-24T12:39:12.046Z,10.3
2016-02-24T12:40:11.970Z,10.4
2016-02-24T12:41:11.956Z,10.42
2016-02-24T12:42:11.882Z,10.17
2016-02-24T12:43:11.775Z,10.13
2016-02-24T12:44:11.856Z,10.42
2016-02-24T12:45:11.859Z,10.49
2016-02-24T12:46:10.968Z,10.48
2016-02-24T12:47:11.586Z,10.41
2016-02-24T12:48:11.500Z,10.46
2016-02-24T12:49:11.555Z,10.56
2016-02-24T12:50:11.392Z,10.38
2016-02-24T12:51:11.353Z,9.89
2016-02-24T12:52:11.274Z,10.01
2016-02-24T12:53:11.164Z,9.97
2016-02-24T12:54:11.193Z,9.68
2016-02-24T12:55:11.084Z,9.72
2016-02-24T12:56:11.067Z,9.73
2016-02-24T12:57:11.021Z,9.69
2016-02-24T12:58:10.882Z,9.68
2016-02-24T12:59:10.853Z,9.64
2016-02-24T13:00:10.807Z,9.72
2016-02-24T13:01:10.763Z,9.54
2016-02-24T13:02:10.702Z,9.43
2016-02-24T13:03:10.642Z,9.55
2016-02-24T13:04:10.613Z,9.39
2016-02-24T13:05:10.538Z,9.41
2016-02-24T13:06:10.493Z,9.5
2016-02-24T13:07:10.464Z,9.41
2016-02-24T13:08:10.358Z,9.31
2016-02-24T13:09:10.313Z,9.41
2016-02-24T13:10:10.362Z,9.37
2016-02-24T13:11:10.254Z,9.41
2016-02-24T13:12:10.179Z,9.39
2016-02-24T13:13:10.104Z,9.46
2016-02-24T13:14:10.404Z,9.48
2016-02-24T13:15:10.126Z,9.43
2016-02-24T13:16:09.972Z,9.43
2016-02-24T13:17:09.927Z,9.29